Time;durP1;ratioP1;P1;durP2;ratioP2;P2;SDS_P1;SDS_P2;PMS_P1;PMS_P2;Temp;Humidity;BMP_temperature;BMP_pressure;BME280_temperature;BME280_humidity;BME280_pressure;Samples;Min_cycle;Max_cycle;Signal;HPM_P1;HPM_P2
2021/06/30 00:01:18;;;;;;;4.53;2.70;;;;;;;13.66;96.26;95246.88;5091002;28;20567;-78
2021/06/30 00:03:43;;;;;;;5.10;2.70;;;;;;;13.67;95.48;95243.91;5091762;28;20044;-78
2021/06/30 00:06:09;;;;;;;4.00;2.50;;;;;;;13.71;94.85;95243.34;5071737;28;20500;-78
2021/06/30 00:08:35;;;;;;;4.53;2.65;;;;;;;13.71;94.97;95238.06;5079694;28;20048;-78
2021/06/30 00:11:01;;;;;;;3.70;2.67;;;;;;;13.69;95.50;95241.78;5069443;28;20067;-77
2021/06/30 00:13:27;;;;;;;5.38;3.03;;;;;;;13.72;96.08;95234.31;5069041;28;20040;-77
2021/06/30 00:15:54;;;;;;;7.78;3.13;;;;;;;13.71;96.01;95235.44;5077861;28;20039;-78
2021/06/30 00:18:20;;;;;;;4.22;2.75;;;;;;;13.71;97.11;95233.56;5091644;28;20447;-78
2021/06/30 00:20:46;;;;;;;6.38;3.20;;;;;;;13.69;97.48;95244.44;5065742;28;20055;-78
2021/06/30 00:23:12;;;;;;;4.40;2.85;;;;;;;13.64;97.46;95233.16;5076041;28;20044;-78
2021/06/30 00:25:38;;;;;;;5.38;3.30;;;;;;;13.67;97.87;95228.06;5093982;28;20139;-77
2021/06/30 00:28:03;;;;;;;6.95;3.65;;;;;;;13.67;97.81;95228.06;5085824;28;20466;-78
2021/06/30 00:30:29;;;;;;;6.38;3.42;;;;;;;13.65;98.47;95230.22;5099165;28;20063;-77
2021/06/30 00:32:55;;;;;;;5.72;3.60;;;;;;;13.65;98.62;95224.94;5077620;28;20101;-77
2021/06/30 00:35:20;;;;;;;5.70;3.80;;;;;;;13.64;99.27;95233.94;5099965;28;20493;-78
2021/06/30 00:37:46;;;;;;;4.15;3.03;;;;;;;13.57;97.58;95228.25;5059556;28;20048;-78
2021/06/30 00:40:13;;;;;;;4.05;3.10;;;;;;;13.59;97.92;95236.69;5094312;28;20041;-78
2021/06/30 00:42:39;;;;;;;4.47;2.90;;;;;;;13.60;96.90;95232.97;5074883;28;20055;-78
2021/06/30 00:45:06;;;;;;;8.63;2.97;;;;;;;13.65;96.44;95230.22;5093873;28;20088;-77
2021/06/30 00:47:32;;;;;;;6.47;2.78;;;;;;;13.64;96.89;95233.94;5090188;28;20036;-77
2021/06/30 00:49:58;;;;;;;4.57;2.90;;;;;;;13.64;96.55;95228.66;5073534;28;20385;-77
2021/06/30 00:52:23;;;;;;;4.80;2.97;;;;;;;13.61;97.08;95231.88;5082720;28;20040;-78
2021/06/30 00:54:49;;;;;;;5.00;3.00;;;;;;;13.57;97.17;95232.78;5080259;28;20148;-78
2021/06/30 00:57:17;;;;;;;4.00;2.80;;;;;;;13.52;97.27;95226.50;5081745;28;20052;-78
2021/06/30 00:59:43;;;;;;;4.40;2.83;;;;;;;13.52;96.51;95225.75;5065571;28;20105;-78
2021/06/30 01:02:08;;;;;;;6.60;2.78;;;;;;;13.57;96.12;95228.25;5093814;28;20482;-78
2021/06/30 01:04:34;;;;;;;3.50;2.80;;;;;;;13.59;96.25;95236.69;5075146;28;20095;-77
2021/06/30 01:06:59;;;;;;;4.43;3.00;;;;;;;13.54;96.15;95239.44;5075762;28;20436;-77
2021/06/30 01:09:25;;;;;;;5.72;2.80;;;;;;;13.53;95.79;95232.56;5072813;28;20058;-78
2021/06/30 01:11:51;;;;;;;5.13;2.88;;;;;;;13.54;97.07;95234.16;5076148;28;20044;-77
2021/06/30 01:14:27;;;;;;;7.18;3.10;;;;;;;13.55;96.67;95230.44;5090961;28;20083;-77
2021/06/30 01:16:53;;;;;;;5.78;3.10;;;;;;;13.58;96.74;95235.13;5096598;28;20036;-77
2021/06/30 01:19:20;;;;;;;5.43;3.00;;;;;;;13.62;95.92;95236.09;5082275;28;20079;-77
2021/06/30 01:21:46;;;;;;;6.97;2.80;;;;;;;13.59;96.11;95236.69;5080329;28;20036;-78
2021/06/30 01:24:11;;;;;;;6.78;3.33;;;;;;;13.58;97.09;95245.69;5074392;28;20060;-77
2021/06/30 01:26:37;;;;;;;4.80;3.50;;;;;;;13.58;96.89;95251.00;5068487;28;20108;-78
2021/06/30 01:29:02;;;;;;;8.07;3.33;;;;;;;13.61;96.15;95250.41;5072767;28;20533;-78
2021/06/30 01:31:28;;;;;;;5.03;3.17;;;;;;;13.69;95.53;95252.34;5093548;28;20516;-77
2021/06/30 01:33:54;;;;;;;5.07;3.55;;;;;;;13.73;97.47;95251.75;5075335;28;20058;-77
2021/06/30 01:36:19;;;;;;;6.95;3.22;;;;;;;13.82;95.01;95250.78;5064798;28;20040;-78
2021/06/30 01:38:45;;;;;;;6.82;3.60;;;;;;;13.84;94.67;95253.13;5079616;28;20127;-78
2021/06/30 01:41:14;;;;;;;7.40;3.03;;;;;;;13.84;94.57;95258.41;5067158;28;20494;-78
2021/06/30 01:43:39;;;;;;;5.43;3.28;;;;;;;13.86;94.86;95261.53;5093590;28;20044;-78
2021/06/30 01:46:05;;;;;;;4.38;3.28;;;;;;;13.84;93.59;95264.47;5074309;28;20032;-78
2021/06/30 01:48:31;;;;;;;6.10;3.70;;;;;;;13.87;95.87;95263.09;5064618;28;20047;-77
2021/06/30 01:50:56;;;;;;;9.00;3.60;;;;;;;13.85;96.20;95275.88;5071324;28;20413;-78
2021/06/30 01:53:22;;;;;;;4.85;3.45;;;;;;;13.85;96.60;95270.56;5071354;28;20064;-78
2021/06/30 01:55:48;;;;;;;6.45;4.18;;;;;;;13.92;95.47;95270.97;5087339;28;20681;-78
2021/06/30 01:58:19;;;;;;;5.72;3.45;;;;;;;13.91;95.31;95277.31;5068274;28;20056;-78
2021/06/30 02:00:48;;;;;;;5.53;3.90;;;;;;;13.89;96.72;95270.75;5066606;28;20550;-77
2021/06/30 02:03:13;;;;;;;5.95;3.80;;;;;;;13.88;96.06;95271.81;5072009;28;20517;-78
2021/06/30 02:05:39;;;;;;;4.75;3.65;;;;;;;13.82;95.01;95276.44;5075482;28;20044;-77
2021/06/30 02:08:05;;;;;;;5.50;3.42;;;;;;;13.89;95.25;95282.09;5066419;28;20115;-77
2021/06/30 02:10:31;;;;;;;7.05;3.65;;;;;;;13.98;95.25;95290.94;5071959;28;20040;-76
2021/06/30 02:12:57;;;;;;;4.50;3.00;;;;;;;13.98;94.91;95296.22;5083089;28;20037;-78
2021/06/30 02:15:26;;;;;;;5.47;3.70;;;;;;;14.00;95.82;95294.03;5077592;28;20039;-77
2021/06/30 02:17:52;;;;;;;4.30;3.28;;;;;;;13.99;94.38;95303.09;5070521;28;20050;-78
2021/06/30 02:20:18;;;;;;;6.47;3.25;;;;;;;13.95;95.56;95302.09;5080998;28;20038;-77
2021/06/30 02:22:45;;;;;;;4.32;3.38;;;;;;;13.96;95.03;95298.34;5080068;28;20040;-78
2021/06/30 02:25:19;;;;;;;6.68;3.17;;;;;;;13.96;94.87;95308.94;5080562;28;20612;-78
2021/06/30 02:27:45;;;;;;;;;;;;;;;13.92;94.04;95313.28;5075446;28;20133;-78
2021/06/30 02:30:17;;;;;;;3.70;2.92;;;;;;;13.91;93.74;95306.41;5083941;28;19928;-78
2021/06/30 02:32:43;;;;;;;11.48;3.10;;;;;;;13.88;93.79;95312.28;5083180;28;20032;-78
2021/06/30 02:35:13;;;;;;;8.07;3.40;;;;;;;13.82;95.08;95308.97;5086675;28;20123;-78
2021/06/30 02:37:39;;;;;;;4.35;2.90;;;;;;;13.72;93.97;95313.66;5061546;28;20410;-78
2021/06/30 02:40:06;;;;;;;4.13;3.22;;;;;;;13.61;95.40;95308.56;5060943;28;20045;-78
2021/06/30 02:42:32;;;;;;;5.30;3.10;;;;;;;13.63;95.64;95319.66;5075477;28;20044;-78
2021/06/30 02:44:57;;;;;;;5.95;3.33;;;;;;;13.60;95.02;95327.38;5076181;28;20062;-78
2021/06/30 02:47:23;;;;;;;3.78;2.97;;;;;;;13.51;95.98;95324.63;5074685;28;20480;-78
2021/06/30 02:49:49;;;;;;;6.32;3.10;;;;;;;13.53;95.03;95333.03;5084252;28;20037;-78
2021/06/30 02:52:14;;;;;;;5.13;2.80;;;;;;;13.58;94.48;95345.41;5073604;28;20081;-78
2021/06/30 02:54:40;;;;;;;5.55;2.80;;;;;;;13.46;94.80;95340.56;5077373;28;20036;-77
2021/06/30 02:57:06;;;;;;;3.90;2.70;;;;;;;13.43;94.63;95349.06;5077305;28;20051;-78
2021/06/30 02:59:31;;;;;;;3.47;2.40;;;;;;;13.37;94.49;95351.03;5075593;28;20049;-78
2021/06/30 03:01:57;;;;;;;3.97;2.20;;;;;;;13.25;93.26;95354.09;5073131;28;20052;-77
2021/06/30 03:04:22;;;;;;;5.63;2.40;;;;;;;13.18;95.10;95356.34;5087647;28;20101;-77
2021/06/30 03:06:49;;;;;;;4.25;2.08;;;;;;;13.13;94.91;95366.97;5070980;28;20347;-76
2021/06/30 03:09:15;;;;;;;7.03;1.92;;;;;;;13.02;94.09;95371.66;5075956;28;20040;-77
2021/06/30 03:11:41;;;;;;;2.63;1.77;;;;;;;12.92;94.46;95372.56;5080958;28;20539;-77
2021/06/30 03:14:06;;;;;;;4.30;1.70;;;;;;;12.86;95.07;95357.88;5080298;28;20036;-79
2021/06/30 03:16:32;;;;;;;2.85;1.40;;;;;;;12.82;93.14;95364.81;5075502;28;20047;-78
2021/06/30 03:18:58;;;;;;;1.25;1.15;;;;;;;12.70;93.90;95370.53;5076326;28;20036;-78
2021/06/30 03:21:23;;;;;;;3.83;1.20;;;;;;;12.57;94.35;95372.03;5082360;28;20044;-79
2021/06/30 03:23:49;;;;;;;1.42;1.27;;;;;;;12.53;94.90;95375.50;5083403;28;20040;-79
2021/06/30 03:26:14;;;;;;;2.00;1.10;;;;;;;12.49;95.29;95370.00;5087606;28;20034;-79
2021/06/30 03:28:40;;;;;;;1.23;1.13;;;;;;;12.37;96.14;95367.00;5086131;28;20040;-80
2021/06/30 03:31:06;;;;;;;2.47;1.10;;;;;;;12.37;95.12;95367.00;5089949;28;20349;-79
2021/06/30 03:33:31;;;;;;;1.88;0.90;;;;;;;12.40;93.98;95382.28;5083202;28;20147;-78
2021/06/30 03:35:57;;;;;;;2.08;0.90;;;;;;;12.34;93.79;95372.84;5089542;28;20047;-80
2021/06/30 03:38:22;;;;;;;0.85;0.85;;;;;;;12.25;93.90;95380.59;5091577;28;20040;-78
2021/06/30 03:40:48;;;;;;;3.50;0.90;;;;;;;12.11;94.39;95380.50;5086945;28;20060;-79
2021/06/30 03:43:13;;;;;;;0.68;0.57;;;;;;;12.09;93.77;95383.41;5098423;28;20052;-77
2021/06/30 03:45:39;;;;;;;0.70;0.70;;;;;;;12.06;93.92;95388.50;5089844;28;20043;-77
2021/06/30 03:48:05;;;;;;;0.65;0.52;;;;;;;12.00;93.70;95384.34;5098325;28;20042;-77
2021/06/30 03:50:30;;;;;;;1.38;0.90;;;;;;;11.96;95.58;95384.88;5079444;28;20049;-77
2021/06/30 03:52:56;;;;;;;0.85;0.85;;;;;;;11.88;94.18;95388.13;5073382;28;20036;-78
2021/06/30 03:55:21;;;;;;;3.10;0.70;;;;;;;11.86;94.57;95389.47;5089983;28;20391;-78
2021/06/30 03:57:47;;;;;;;1.27;0.88;;;;;;;11.85;93.27;95383.41;5083221;28;20047;-78
2021/06/30 04:00:12;;;;;;;0.95;0.70;;;;;;;11.86;94.61;95400.78;5081801;28;20047;-78
2021/06/30 04:02:38;;;;;;;1.08;0.73;;;;;;;11.81;94.08;95394.78;5083210;28;20037;-78
2021/06/30 04:05:04;;;;;;;0.80;0.80;;;;;;;11.84;94.46;95392.38;5096987;28;20462;-78
2021/06/30 04:07:30;;;;;;;1.25;0.90;;;;;;;11.78;94.43;95393.50;5096341;28;20049;-78
2021/06/30 04:09:55;;;;;;;1.33;1.10;;;;;;;11.77;94.05;95386.66;5078301;28;20056;-78
2021/06/30 04:12:21;;;;;;;1.35;1.00;;;;;;;11.75;94.60;95394.03;5084070;28;20068;-78
2021/06/30 04:14:47;;;;;;;1.20;0.80;;;;;;;11.76;93.96;95385.06;5081447;28;20068;-78
2021/06/30 04:17:12;;;;;;;2.38;0.90;;;;;;;11.78;94.87;95382.97;5082769;28;20036;-78
2021/06/30 04:19:38;;;;;;;2.08;0.70;;;;;;;11.70;94.13;95380.94;5077767;28;20123;-79
2021/06/30 04:22:04;;;;;;;1.60;0.80;;;;;;;11.75;95.29;95383.50;5087918;28;20089;-78
2021/06/30 04:24:29;;;;;;;0.47;0.47;;;;;;;11.76;94.96;95375.31;5076607;28;20044;-78
2021/06/30 04:26:55;;;;;;;1.50;0.82;;;;;;;11.74;94.61;95379.31;5084988;28;20032;-78
2021/06/30 04:29:21;;;;;;;1.55;0.77;;;;;;;11.76;93.70;95364.00;5078343;28;20082;-78
2021/06/30 04:31:46;;;;;;;1.50;0.93;;;;;;;11.79;94.95;95368.69;5080080;28;20056;-78
2021/06/30 04:34:12;;;;;;;1.52;0.90;;;;;;;11.80;94.23;95370.28;5082605;28;20064;-78
2021/06/30 04:36:37;;;;;;;1.65;0.93;;;;;;;11.75;96.01;95367.69;5081272;28;20044;-78
2021/06/30 04:39:03;;;;;;;1.67;1.00;;;;;;;11.82;94.99;95364.72;5079076;28;20055;-78
2021/06/30 04:41:28;;;;;;;3.47;1.00;;;;;;;11.86;93.73;95355.97;5095753;28;20040;-78
2021/06/30 04:43:54;;;;;;;1.00;0.80;;;;;;;11.86;94.55;95361.22;5077250;28;20051;-78
2021/06/30 04:46:19;;;;;;;1.05;0.80;;;;;;;11.90;93.86;95358.84;5083510;28;20244;-78
2021/06/30 04:48:45;;;;;;;2.90;0.70;;;;;;;11.88;94.38;95361.75;5078054;28;20040;-78
2021/06/30 04:51:11;;;;;;;0.70;0.70;;;;;;;11.91;94.17;95355.91;5075117;28;20043;-78
2021/06/30 04:53:37;;;;;;;1.98;0.82;;;;;;;11.93;93.89;95359.06;5082835;28;20044;-78
2021/06/30 04:56:02;;;;;;;2.58;0.70;;;;;;;11.92;92.85;95352.22;5070528;28;20409;-78
2021/06/30 04:58:28;;;;;;;0.60;0.60;;;;;;;11.96;94.41;95353.22;5079062;28;20048;-78
2021/06/30 05:00:55;;;;;;;1.50;0.80;;;;;;;12.02;93.03;95367.16;5081414;28;20031;-78
2021/06/30 05:03:21;;;;;;;1.45;0.75;;;;;;;12.07;92.57;95379.50;5089057;28;20043;-78
2021/06/30 05:05:48;;;;;;;0.68;0.65;;;;;;;12.04;94.37;95377.41;5106936;28;20173;-78
2021/06/30 05:08:15;;;;;;;1.08;0.60;;;;;;;12.07;92.62;95390.06;5065841;28;20521;-79
2021/06/30 05:10:40;;;;;;;2.97;0.60;;;;;;;12.11;92.17;95391.03;5073466;28;20095;-78
2021/06/30 05:13:06;;;;;;;0.52;0.50;;;;;;;12.12;91.64;95382.06;5092346;28;20417;-78
2021/06/30 05:15:32;;;;;;;0.63;0.50;;;;;;;12.13;91.88;95381.03;5093171;28;20032;-78
2021/06/30 05:17:57;;;;;;;0.68;0.55;;;;;;;12.11;91.64;95375.22;5079735;28;20065;-78
2021/06/30 05:20:23;;;;;;;1.15;0.75;;;;;;;12.04;93.38;95374.78;5076704;28;20490;-78
2021/06/30 05:22:48;;;;;;;0.45;0.45;;;;;;;12.05;92.48;95376.34;5083539;28;20286;-78
2021/06/30 05:25:14;;;;;;;1.55;0.80;;;;;;;12.12;92.97;95371.53;5075796;28;20055;-78
2021/06/30 05:27:40;;;;;;;1.42;0.52;;;;;;;12.12;92.12;95371.53;5079571;28;20040;-78
2021/06/30 05:30:06;;;;;;;1.52;0.70;;;;;;;12.08;91.87;95371.31;5081836;28;20036;-77
2021/06/30 05:32:32;;;;;;;1.95;0.73;;;;;;;12.07;92.97;95374.25;5082633;28;20044;-78
2021/06/30 05:34:57;;;;;;;0.93;0.50;;;;;;;12.09;91.84;95361.53;5060580;28;20036;-78
2021/06/30 05:37:23;;;;;;;1.30;0.63;;;;;;;12.19;92.16;95365.91;5075979;28;20204;-78
2021/06/30 05:39:48;;;;;;;1.00;0.60;;;;;;;12.24;91.54;95358.72;5074985;28;20032;-78
2021/06/30 05:42:14;;;;;;;1.05;0.80;;;;;;;12.27;91.90;95352.88;5071299;28;20123;-78
2021/06/30 05:44:39;;;;;;;0.40;0.40;;;;;;;12.29;90.71;95356.00;5078505;28;20039;-78
2021/06/30 05:47:05;;;;;;;1.77;0.63;;;;;;;12.35;91.24;95353.31;5087475;28;20040;-78
2021/06/30 05:49:30;;;;;;;1.75;0.70;;;;;;;12.39;90.41;95349.03;5078137;28;20119;-78
2021/06/30 05:51:56;;;;;;;0.55;0.52;;;;;;;12.39;89.20;95354.31;5077032;28;20041;-78
2021/06/30 05:54:21;;;;;;;1.17;0.70;;;;;;;12.48;89.81;95357.88;5078442;28;20121;-78
2021/06/30 05:56:48;;;;;;;1.42;0.82;;;;;;;12.46;90.10;95354.75;5083089;28;20071;-78
2021/06/30 05:59:13;;;;;;;1.55;0.90;;;;;;;12.52;91.65;95358.88;5084526;28;20044;-78
2021/06/30 06:01:39;;;;;;;0.60;0.60;;;;;;;12.50;90.14;95350.47;5078711;28;20044;-78
2021/06/30 06:04:05;;;;;;;1.38;0.80;;;;;;;12.43;90.49;95350.81;5073032;28;20094;-78
2021/06/30 06:06:30;;;;;;;0.40;0.40;;;;;;;12.51;89.72;95352.03;5072644;28;20040;-78
2021/06/30 06:08:55;;;;;;;2.25;0.88;;;;;;;12.48;90.58;95352.59;5074605;28;20131;-78
2021/06/30 06:11:22;;;;;;;1.70;0.70;;;;;;;12.52;90.86;95350.97;5087460;28;20032;-78
2021/06/30 06:13:48;;;;;;;1.20;0.90;;;;;;;12.61;90.20;95357.19;5077781;28;20448;-78
2021/06/30 06:16:16;;;;;;;1.00;0.90;;;;;;;12.59;88.47;95359.31;5083219;28;20086;-78
2021/06/30 06:18:42;;;;;;;1.55;0.50;;;;;;;12.56;89.42;95361.75;5064917;28;20036;-78
2021/06/30 06:21:08;;;;;;;1.27;0.70;;;;;;;12.54;89.31;95359.41;5081792;28;20032;-78
2021/06/30 06:23:33;;;;;;;3.50;0.40;;;;;;;12.43;89.41;95352.69;5083140;28;20040;-78
2021/06/30 06:25:59;;;;;;;1.08;0.63;;;;;;;12.42;89.42;95354.53;5073193;28;20040;-78
2021/06/30 06:28:33;;;;;;;0.65;0.63;;;;;;;12.48;90.22;95358.69;5069964;28;20040;-78
2021/06/30 06:31:04;;;;;;;1.92;0.80;;;;;;;12.56;89.68;95365.16;5071727;28;20048;-78
2021/06/30 06:33:30;;;;;;;0.50;0.50;;;;;;;12.64;89.67;95361.09;5090817;28;20050;-78
2021/06/30 06:35:57;;;;;;;0.75;0.70;;;;;;;12.76;88.49;95355.41;5071697;28;20045;-78
2021/06/30 06:38:26;;;;;;;0.55;0.55;;;;;;;12.92;88.47;95355.97;5078911;28;20124;-78
2021/06/30 06:40:51;;;;;;;0.65;0.60;;;;;;;13.06;86.57;95353.34;5071611;28;20040;-78
2021/06/30 06:43:18;;;;;;;0.50;0.47;;;;;;;13.29;84.26;95349.81;5071472;28;20070;-78
2021/06/30 06:45:44;;;;;;;1.55;0.50;;;;;;;13.48;85.69;95351.63;5071164;28;20049;-77
2021/06/30 06:48:09;;;;;;;1.27;0.52;;;;;;;13.72;82.76;95361.25;5069348;28;20078;-76
2021/06/30 06:50:35;;;;;;;1.95;0.55;;;;;;;13.75;83.13;95356.19;5070299;28;20044;-78
2021/06/30 06:53:01;;;;;;;1.58;0.60;;;;;;;13.85;83.46;95360.50;5094494;28;20130;-78
2021/06/30 06:55:27;;;;;;;0.73;0.50;;;;;;;13.91;83.46;95359.31;5079698;28;20123;-77
2021/06/30 06:57:53;;;;;;;2.03;0.60;;;;;;;14.07;82.90;95351.88;5078103;28;20065;-77
2021/06/30 07:00:19;;;;;;;0.90;0.50;;;;;;;14.18;80.64;95352.47;5080913;28;20126;-77
2021/06/30 07:02:45;;;;;;;4.32;0.80;;;;;;;14.36;82.56;95353.41;5074903;28;20089;-77
2021/06/30 07:05:11;;;;;;;5.93;0.82;;;;;;;14.38;80.79;95346.72;5077314;28;20037;-79
2021/06/30 07:07:44;;;;;;;0.98;0.70;;;;;;;14.40;79.57;95358.91;5083985;28;20437;-79
2021/06/30 07:10:11;;;;;;;0.50;0.50;;;;;;;14.28;78.94;95352.25;5064442;28;20044;-79
2021/06/30 07:12:37;;;;;;;0.50;0.32;;;;;;;14.23;79.53;95354.97;5075412;28;20032;-81
2021/06/30 07:15:04;;;;;;;0.47;0.47;;;;;;;14.12;79.96;95358.91;5086539;28;20086;-79
2021/06/30 07:17:30;;;;;;;1.02;0.50;;;;;;;14.11;80.40;95367.94;5076542;28;20056;-80
2021/06/30 07:19:56;;;;;;;0.82;0.60;;;;;;;14.09;79.45;95375.38;5074603;28;20493;-80
2021/06/30 07:22:21;;;;;;;0.25;0.25;;;;;;;14.00;80.49;95367.34;5074466;28;20044;-82
2021/06/30 07:24:47;;;;;;;0.40;0.40;;;;;;;14.02;80.65;95366.00;5069136;28;20098;-80
2021/06/30 07:27:14;;;;;;;1.73;0.55;;;;;;;14.13;79.73;95360.50;5063637;28;20282;-80
2021/06/30 07:29:40;;;;;;;0.90;0.43;;;;;;;14.16;80.38;95365.19;5074266;28;20079;-80
2021/06/30 07:32:06;;;;;;;0.73;0.60;;;;;;;14.31;79.67;95362.25;5074630;28;20529;-79
2021/06/30 07:34:31;;;;;;;0.68;0.63;;;;;;;14.44;81.00;95359.84;5068997;28;20572;-79
2021/06/30 07:36:58;;;;;;;1.30;0.50;;;;;;;14.68;77.80;95362.28;5074216;28;20075;-78
2021/06/30 07:39:24;;;;;;;0.82;0.57;;;;;;;14.77;74.78;95352.56;5069109;28;20147;-80
2021/06/30 07:41:51;;;;;;;2.42;0.82;;;;;;;14.96;74.14;95360.34;5074221;28;20041;-80
2021/06/30 07:44:17;;;;;;;0.73;0.73;;;;;;;14.85;72.36;95348.41;5074502;28;20037;-78
2021/06/30 07:46:43;;;;;;;1.15;0.68;;;;;;;14.81;73.67;95336.81;5070406;28;20037;-79
2021/06/30 07:49:09;;;;;;;0.98;0.57;;;;;;;15.10;76.02;95343.56;5088709;28;20044;-79
2021/06/30 07:51:34;;;;;;;1.65;0.60;;;;;;;15.15;73.61;95346.13;5089411;28;20501;-79
2021/06/30 07:54:00;;;;;;;2.22;0.70;;;;;;;15.24;72.66;95339.78;5072843;28;20033;-79
2021/06/30 07:56:36;;;;;;;1.48;0.60;;;;;;;15.23;69.92;95348.06;5068533;28;20499;-79
2021/06/30 07:59:06;;;;;;;0.68;0.68;;;;;;;15.16;72.06;95351.13;5052477;28;20501;-79
2021/06/30 08:01:32;;;;;;;0.57;0.57;;;;;;;15.15;71.87;95346.88;5058429;28;20562;-78
2021/06/30 08:03:57;;;;;;;1.17;0.73;;;;;;;15.23;73.79;95348.06;5089054;28;20119;-79
2021/06/30 08:06:23;;;;;;;1.35;0.57;;;;;;;15.16;73.88;95359.06;5073497;28;20105;-79
2021/06/30 08:08:49;;;;;;;1.02;0.80;;;;;;;15.27;71.12;95359.63;5072037;28;20052;-80
2021/06/30 08:11:16;;;;;;;1.10;0.85;;;;;;;15.29;69.72;95357.44;5054021;28;20131;-78
2021/06/30 08:13:41;;;;;;;2.42;0.80;;;;;;;15.20;73.43;95361.88;5074748;28;20425;-79
2021/06/30 08:16:07;;;;;;;0.60;0.60;;;;;;;15.31;72.19;95355.25;5074363;28;20044;-78
2021/06/30 08:18:33;;;;;;;0.73;0.63;;;;;;;15.44;69.93;95363.44;5067226;28;20045;-78
2021/06/30 08:20:59;;;;;;;0.70;0.70;;;;;;;15.67;70.16;95357.00;5074343;28;20099;-78
2021/06/30 08:23:24;;;;;;;0.93;0.70;;;;;;;15.99;72.74;95365.75;5079110;28;20040;-78
2021/06/30 08:25:50;;;;;;;1.02;0.88;;;;;;;16.11;67.46;95371.25;5068231;28;20048;-78
2021/06/30 08:28:22;;;;;;;3.05;0.70;;;;;;;16.16;67.00;95361.59;5054326;28;20128;-78
2021/06/30 08:30:48;;;;;;;0.63;0.63;;;;;;;16.23;67.33;95373.34;5054952;28;20064;-79
2021/06/30 08:33:13;;;;;;;1.60;0.80;;;;;;;16.10;65.57;95366.25;5063885;28;20097;-78
2021/06/30 08:35:39;;;;;;;2.17;0.68;;;;;;;16.14;65.57;95363.78;5068168;28;20045;-79
2021/06/30 08:38:05;;;;;;;1.70;0.80;;;;;;;15.90;67.91;95370.25;5074742;28;20123;-77
2021/06/30 08:40:32;;;;;;;0.65;0.60;;;;;;;16.11;65.98;95371.25;5058410;28;20037;-78
2021/06/30 08:42:57;;;;;;;0.70;0.70;;;;;;;16.14;65.17;95363.78;5065631;28;20489;-79
2021/06/30 08:45:23;;;;;;;1.10;1.00;;;;;;;16.17;66.21;95363.16;5075132;28;20043;-79
2021/06/30 08:47:55;;;;;;;1.77;1.00;;;;;;;16.23;65.92;95372.53;5089144;28;20413;-79
2021/06/30 08:50:21;;;;;;;2.10;0.77;;;;;;;16.26;66.31;95361.28;5056289;28;20037;-78
2021/06/30 08:52:48;;;;;;;0.68;0.68;;;;;;;16.03;67.23;95369.38;5054802;28;20534;-78
2021/06/30 08:55:16;;;;;;;1.45;1.00;;;;;;;16.13;65.07;95367.50;5074325;28;20044;-78
2021/06/30 08:57:45;;;;;;;1.90;0.80;;;;;;;16.16;63.59;95372.19;5079849;28;20051;-78
2021/06/30 09:00:11;;;;;;;0.75;0.52;;;;;;;15.97;65.07;95370.56;5054892;28;20075;-78
2021/06/30 09:02:36;;;;;;;1.05;0.88;;;;;;;15.94;65.25;95366.66;5071725;28;20043;-78
2021/06/30 09:05:12;;;;;;;1.13;0.88;;;;;;;16.13;64.38;95372.81;5073631;28;20037;-78
2021/06/30 09:07:39;;;;;;;0.82;0.80;;;;;;;16.37;64.64;95378.50;5065911;28;20391;-79
2021/06/30 09:10:05;;;;;;;2.40;0.75;;;;;;;16.52;64.62;95379.94;5062769;28;20449;-78
2021/06/30 09:12:41;;;;;;;1.85;0.70;;;;;;;16.47;63.86;95379.31;5067721;28;20040;-78
2021/06/30 09:15:14;;;;;;;2.58;1.08;;;;;;;16.67;60.73;95380.59;5074221;28;20040;-78
2021/06/30 09:17:40;;;;;;;1.08;0.85;;;;;;;16.85;61.61;95381.38;5073964;28;20548;-78
2021/06/30 09:20:08;;;;;;;0.70;0.70;;;;;;;16.88;62.86;95386.09;5070062;28;20069;-79
2021/06/30 09:22:43;;;;;;;0.80;0.80;;;;;;;16.86;62.87;95393.56;5065643;28;20065;-78
2021/06/30 09:25:24;;;;;;;1.60;1.00;;;;;;;16.46;64.39;95402.41;5075713;28;20102;-78
2021/06/30 09:27:50;;;;;;;1.35;0.77;;;;;;;16.75;61.84;95404.53;5065422;28;20037;-78
2021/06/30 09:30:15;;;;;;;1.13;0.82;;;;;;;16.68;61.78;95400.75;5089279;28;20045;-79
2021/06/30 09:32:55;;;;;;;1.45;0.90;;;;;;;16.65;62.31;95398.72;5089259;28;20045;-78
2021/06/30 09:35:27;;;;;;;1.73;0.75;;;;;;;16.54;61.68;95398.25;5072633;28;20450;-78
2021/06/30 09:37:53;;;;;;;1.50;0.80;;;;;;;16.41;61.66;95407.88;5066172;28;20560;-78
2021/06/30 09:40:19;;;;;;;3.45;1.02;;;;;;;16.44;62.26;95410.69;5059997;28;20041;-78
2021/06/30 09:42:46;;;;;;;1.08;0.80;;;;;;;16.34;62.01;95411.00;5052915;28;20049;-79
2021/06/30 09:45:19;;;;;;;3.15;1.00;;;;;;;16.49;61.60;95406.34;5054599;28;20124;-79
2021/06/30 09:47:48;;;;;;;0.90;0.90;;;;;;;16.58;60.90;95415.13;5071769;28;20898;-78
2021/06/30 09:50:16;;;;;;;1.15;1.05;;;;;;;16.79;62.23;95405.47;5073163;28;20078;-78
2021/06/30 09:52:43;;;;;;;0.93;0.93;;;;;;;17.14;60.09;95397.50;5072822;28;20042;-77
2021/06/30 09:55:29;;;;;;;4.60;1.02;;;;;;;17.33;59.10;95407.03;5069343;28;20063;-79
2021/06/30 09:57:56;;;;;;;1.27;0.88;;;;;;;17.39;59.93;95399.69;5071060;28;20043;-78
2021/06/30 10:00:24;;;;;;;2.05;1.10;;;;;;;17.29;58.00;95411.44;5088707;28;20032;-77
2021/06/30 10:02:49;;;;;;;0.65;0.60;;;;;;;17.22;58.12;95405.81;5066756;28;20033;-79
2021/06/30 10:05:27;;;;;;;2.72;0.93;;;;;;;17.40;60.66;95394.06;5088117;28;20119;-77
2021/06/30 10:07:57;;;;;;;0.82;0.82;;;;;;;17.59;58.61;95392.91;5087242;28;20044;-77
2021/06/30 10:10:22;;;;;;;0.77;0.77;;;;;;;17.25;57.32;95399.84;5068581;28;20044;-79
2021/06/30 10:12:48;;;;;;;1.05;0.95;;;;;;;17.16;57.47;95388.44;5069141;28;20043;-77
2021/06/30 10:15:14;;;;;;;1.48;0.90;;;;;;;17.11;58.64;95384.84;5069119;28;20064;-77
2021/06/30 10:17:39;;;;;;;0.57;0.57;;;;;;;17.25;58.59;95383.91;5064100;28;20426;-76
2021/06/30 10:20:06;;;;;;;1.15;1.05;;;;;;;17.35;58.85;95375.59;5066763;28;20066;-80
2021/06/30 10:22:32;;;;;;;1.17;0.88;;;;;;;17.10;56.95;95377.19;5070910;28;20051;-77
2021/06/30 10:24:58;;;;;;;2.13;1.00;;;;;;;17.10;59.72;95383.28;5072291;28;20135;-78
2021/06/30 10:27:24;;;;;;;1.48;1.00;;;;;;;17.16;57.90;95380.47;5063830;28;20059;-78
2021/06/30 10:29:56;;;;;;;1.27;0.90;;;;;;;17.17;58.62;95382.00;5064934;28;20099;-78
2021/06/30 10:32:23;;;;;;;0.98;0.80;;;;;;;17.56;58.98;95393.56;5063572;28;20036;-81
2021/06/30 10:34:55;;;;;;;2.70;1.10;;;;;;;17.64;57.44;95382.88;5085308;28;20162;-80
2021/06/30 10:37:26;;;;;;;1.30;0.98;;;;;;;17.78;57.77;95380.00;5065364;28;20108;-79
2021/06/30 10:39:53;;;;;;;2.78;1.02;;;;;;;17.81;56.29;95391.91;5064385;28;20482;-80
2021/06/30 10:42:19;;;;;;;0.93;0.90;;;;;;;17.23;56.37;95391.41;5066571;28;20036;-78
2021/06/30 10:44:48;;;;;;;1.60;1.00;;;;;;;17.48;58.34;95387.13;5067226;28;20032;-78
2021/06/30 10:47:34;;;;;;;0.85;0.82;;;;;;;17.26;57.37;95380.91;5068399;28;20044;-80
2021/06/30 10:50:26;;;;;;;0.82;0.80;;;;;;;17.30;56.76;95394.38;5078933;28;20497;-78
2021/06/30 10:52:55;;;;;;;2.95;0.93;;;;;;;17.09;56.94;95381.72;5080624;28;20449;-78
2021/06/30 10:55:30;;;;;;;1.50;0.77;;;;;;;16.85;57.05;95381.38;5064289;28;20037;-80
2021/06/30 10:58:11;;;;;;;0.60;0.60;;;;;;;16.98;57.73;95385.78;5066320;28;20111;-80
2021/06/30 11:00:44;;;;;;;0.68;0.65;;;;;;;17.36;57.76;95379.81;5066194;28;20040;-81
2021/06/30 11:03:19;;;;;;;0.80;0.80;;;;;;;17.30;58.38;95383.75;5065493;28;20044;-81
2021/06/30 11:05:44;;;;;;;;;;;;;;;17.20;58.33;95382.19;5061824;28;20095;-77
2021/06/30 11:08:53;;;;;;;0.95;0.90;;;;;;;17.23;57.01;95392.19;5068827;28;20401;-77
2021/06/30 11:11:24;;;;;;;1.20;1.00;;;;;;;17.07;56.87;95383.91;5048693;28;20082;-79
2021/06/30 11:13:57;;;;;;;1.52;0.90;;;;;;;16.74;57.49;95381.69;5071303;28;20037;-78
2021/06/30 11:19:16;;;;;;;1.17;0.90;;;;;;;16.88;58.63;95391.41;5070348;28;20040;-78
2021/06/30 11:21:46;;;;;;;0.95;0.90;;;;;;;16.63;59.20;95396.38;5071860;28;20044;-79
2021/06/30 11:24:36;;;;;;;3.33;1.33;;;;;;;16.81;62.08;95397.19;5071277;28;20033;-79
2021/06/30 11:29:54;;;;;;;2.60;0.85;;;;;;;16.66;59.88;95379.78;5062344;28;20409;-78
2021/06/30 11:32:49;;;;;;;2.40;0.80;;;;;;;16.51;60.01;95383.69;5070815;28;20036;-79
2021/06/30 11:35:24;;;;;;;;;;;;;;;16.24;60.60;95390.03;5066785;28;20067;-78
2021/06/30 11:38:11;;;;;;;1.27;0.70;;;;;;;16.21;59.84;95390.66;5070605;28;19921;-79
2021/06/30 11:41:02;;;;;;;2.17;0.90;;;;;;;16.26;59.84;95385.19;5069778;28;20036;-78